Sand Hill, Texas
Current Conditions -  °F | °C
As of 8:55 PM on Monday 22 Dec 2014 (Local Time) from KOSA Reporting Station
Clear Clear  
Wind Chill: 57°   Ceiling: Unl
Heat Index: 57°   Visibility: 10mi
Dew Point: 46°   Wind: 6mph
Humidity: 68%   Direction: 320°NW
Pressure: 29.67"   Gusts: NA
Location:  32.7353°N, 94.9492°W
Report Text: KOSA 230255Z AUTO 32005KT 10SM CLR 14/08 A2967 RMK AO1 T01380080
Loading
Personal Weather Stations






























Interactive Weather Map New forecast layout! Learn more

10-Day Weather Forecast

Advertisements
Track Severe Weather on mobile